createdAt,value
2023-04-07T00:01:26.568Z,9.10
2023-04-07T00:06:49.269Z,8.60
2023-04-07T00:12:11.819Z,9.60
2023-04-07T00:17:34.239Z,9.53
2023-04-07T00:22:56.552Z,9.37
2023-04-07T00:28:19.131Z,10.17
2023-04-07T00:33:41.584Z,9.80
2023-04-07T00:39:03.885Z,10.60
2023-04-07T00:44:26.384Z,9.70
2023-04-07T00:49:48.550Z,10.30
2023-04-07T00:55:10.870Z,10.20
2023-04-07T01:00:46.125Z,11.67
2023-04-07T01:06:11.365Z,12.10
2023-04-07T01:11:39.780Z,10.67
2023-04-07T01:17:07.605Z,11.07
2023-04-07T01:22:39.819Z,11.00
2023-04-07T01:28:02.590Z,11.10
2023-04-07T01:33:30.444Z,10.27
2023-04-07T01:38:53.524Z,10.77
2023-04-07T01:44:16.729Z,9.30
2023-04-07T01:49:41.357Z,10.60
2023-04-07T01:55:05.392Z,10.30
2023-04-07T02:00:31.861Z,10.60
2023-04-07T02:06:02.761Z,10.03
2023-04-07T02:11:26.563Z,10.53
2023-04-07T02:16:54.366Z,10.37
2023-04-07T02:22:17.464Z,10.10
2023-04-07T02:27:39.648Z,10.30
2023-04-07T02:33:02.087Z,10.27
2023-04-07T02:38:24.305Z,9.80
2023-04-07T02:43:46.997Z,9.37
2023-04-07T02:49:09.476Z,8.37
2023-04-07T02:54:33.792Z,8.87
2023-04-07T02:59:58.144Z,9.00
2023-04-07T03:05:28.840Z,8.07
2023-04-07T03:10:51.305Z,7.83
2023-04-07T03:16:19.785Z,7.70
2023-04-07T03:21:55.199Z,8.37
2023-04-07T03:27:17.621Z,8.43
2023-04-07T03:32:42.460Z,8.67
2023-04-07T03:38:06.388Z,8.23
2023-04-07T03:43:28.653Z,8.73
2023-04-07T03:48:51.727Z,8.60
2023-04-07T03:54:18.922Z,8.17
2023-04-07T03:59:41.476Z,8.47
2023-04-07T04:05:03.966Z,7.73
2023-04-07T04:10:27.346Z,8.00
2023-04-07T04:15:52.637Z,7.67
2023-04-07T04:21:14.869Z,8.03
2023-04-07T04:26:39.006Z,7.90
2023-04-07T04:32:07.221Z,7.47
2023-04-07T04:37:29.957Z,7.30
2023-04-07T04:42:53.024Z,7.97
2023-04-07T04:48:17.601Z,8.30
2023-04-07T04:53:40.776Z,6.93
2023-04-07T04:59:04.635Z,7.23
2023-04-07T05:04:35.286Z,7.77
2023-04-07T05:10:13.290Z,7.03
2023-04-07T05:15:42.650Z,7.63
2023-04-07T05:21:07.563Z,10.00
2023-04-07T05:26:31.743Z,9.43
2023-04-07T05:31:55.611Z,8.20
2023-04-07T05:37:18.812Z,9.40
2023-04-07T05:42:42.706Z,9.93
2023-04-07T05:48:06.526Z,9.17
2023-04-07T05:53:39.434Z,8.63
2023-04-07T05:59:01.985Z,7.90
2023-04-07T06:04:24.383Z,7.90
2023-04-07T06:09:47.662Z,8.13
2023-04-07T06:15:10.827Z,8.70
2023-04-07T06:20:34.169Z,9.20
2023-04-07T06:25:56.585Z,9.43
2023-04-07T06:31:19.351Z,8.80
2023-04-07T06:36:41.590Z,9.27
2023-04-07T06:42:05.403Z,7.73
2023-04-07T06:47:33.297Z,7.33
2023-04-07T06:52:55.729Z,7.53
2023-04-07T06:58:18.286Z,7.30
2023-04-07T07:03:40.534Z,6.20
2023-04-07T07:09:04.133Z,5.43
2023-04-07T07:14:26.564Z,5.70
2023-04-07T07:19:48.978Z,5.63
2023-04-07T07:25:11.821Z,6.37
2023-04-07T07:30:34.198Z,6.17
2023-04-07T07:35:56.760Z,5.23
2023-04-07T07:41:18.978Z,5.80
2023-04-07T07:46:41.298Z,4.87
2023-04-07T07:52:03.892Z,5.70
2023-04-07T07:57:26.335Z,5.23
2023-04-07T08:02:48.604Z,3.93
2023-04-07T08:08:11.195Z,3.83
2023-04-07T08:13:33.871Z,3.27
2023-04-07T08:18:56.398Z,3.60
2023-04-07T08:24:19.033Z,3.50
2023-04-07T08:29:41.252Z,3.20
2023-04-07T08:35:04.166Z,3.73
2023-04-07T08:40:26.400Z,3.67
2023-04-07T08:45:52.375Z,4.03
2023-04-07T08:51:41.780Z,4.50
2023-04-07T08:57:05.642Z,4.20
2023-04-07T09:02:29.122Z,4.03
2023-04-07T09:07:51.457Z,4.57
2023-04-07T09:13:13.911Z,4.13
2023-04-07T09:18:36.533Z,3.87
2023-04-07T09:23:58.775Z,4.20
2023-04-07T09:29:23.477Z,3.50
2023-04-07T09:34:46.095Z,3.30
2023-04-07T09:40:09.139Z,3.30
2023-04-07T09:45:35.772Z,3.10
2023-04-07T09:51:07.936Z,3.27
2023-04-07T09:56:30.924Z,2.67
2023-04-07T10:01:56.297Z,3.00
2023-04-07T10:07:19.640Z,2.80
2023-04-07T10:12:42.800Z,2.77
2023-04-07T10:18:07.509Z,2.90
2023-04-07T10:23:55.066Z,3.17
2023-04-07T10:29:18.188Z,3.77
2023-04-07T10:34:53.710Z,3.80
2023-04-07T10:40:18.815Z,4.03
2023-04-07T10:45:47.234Z,4.10
2023-04-07T10:51:15.431Z,4.70
2023-04-07T10:57:05.281Z,4.97
2023-04-07T11:02:27.496Z,5.13
2023-04-07T11:07:55.017Z,5.77
2023-04-07T11:13:18.627Z,8.30
2023-04-07T11:18:41.537Z,10.83
2023-04-07T11:24:03.964Z,10.67
2023-04-07T11:29:30.481Z,12.07
2023-04-07T11:34:53.095Z,12.13
2023-04-07T11:40:36.950Z,13.87
2023-04-07T11:46:12.771Z,13.97
2023-04-07T11:51:35.698Z,15.37
2023-04-07T11:56:58.318Z,16.20
2023-04-07T12:02:34.616Z,16.37
2023-04-07T12:07:58.021Z,15.60
2023-04-07T12:13:20.472Z,15.50
2023-04-07T12:18:42.681Z,15.10
2023-04-07T12:24:05.211Z,13.27
2023-04-07T12:29:28.299Z,13.73
2023-04-07T12:34:51.052Z,12.60
2023-04-07T12:40:13.577Z,12.63
2023-04-07T12:45:37.878Z,15.40
2023-04-07T12:51:01.038Z,14.63
2023-04-07T12:56:24.247Z,13.57
2023-04-07T13:01:49.538Z,13.97
2023-04-07T13:07:13.990Z,14.00
2023-04-07T13:12:37.273Z,14.40
2023-04-07T13:17:59.989Z,15.40
2023-04-07T13:23:22.802Z,13.73
2023-04-07T13:28:46.175Z,12.37
2023-04-07T13:34:09.221Z,10.70
2023-04-07T13:39:32.614Z,10.90
2023-04-07T13:44:54.910Z,12.10
2023-04-07T13:50:17.187Z,11.93
2023-04-07T13:55:39.629Z,12.17
2023-04-07T14:01:03.023Z,11.10
2023-04-07T14:06:26.702Z,9.30
2023-04-07T14:11:49.106Z,9.43
2023-04-07T14:17:11.748Z,9.57
2023-04-07T14:22:34.369Z,7.70
2023-04-07T14:27:57.736Z,7.97
2023-04-07T14:33:20.692Z,8.77
2023-04-07T14:38:44.292Z,8.30
2023-04-07T14:44:06.430Z,8.40
2023-04-07T14:49:28.975Z,8.57
2023-04-07T14:54:51.405Z,8.57
2023-04-07T15:00:14.041Z,8.90
2023-04-07T15:05:36.343Z,9.37
2023-04-07T15:11:00.607Z,9.47
2023-04-07T15:16:23.102Z,8.40
2023-04-07T15:21:45.768Z,9.40
2023-04-07T15:27:08.543Z,9.33
2023-04-07T15:32:31.908Z,10.27
2023-04-07T15:37:54.394Z,9.87
2023-04-07T15:43:16.574Z,9.47
2023-04-07T15:48:39.101Z,10.67
2023-04-07T15:54:01.645Z,9.23
2023-04-07T15:59:24.059Z,9.37
2023-04-07T16:04:47.503Z,9.57
2023-04-07T16:10:10.212Z,9.23
2023-04-07T16:15:40.024Z,9.43
2023-04-07T16:21:07.003Z,9.97
2023-04-07T16:26:29.499Z,9.13
2023-04-07T16:31:52.112Z,9.93
2023-04-07T16:37:14.379Z,8.77
2023-04-07T16:42:36.749Z,10.20
2023-04-07T16:47:59.803Z,10.17
2023-04-07T16:53:22.390Z,10.07
2023-04-07T16:58:44.848Z,7.80
2023-04-07T17:04:07.306Z,5.50
2023-04-07T17:09:29.972Z,5.30
2023-04-07T17:14:52.252Z,5.90
2023-04-07T17:20:15.124Z,5.57
2023-04-07T17:25:37.559Z,5.80
2023-04-07T17:31:00.132Z,6.10
2023-04-07T17:36:22.673Z,5.23
2023-04-07T17:41:46.901Z,5.67
2023-04-07T17:47:09.767Z,6.60
2023-04-07T17:52:32.295Z,5.73
2023-04-07T17:58:00.767Z,5.27
2023-04-07T18:03:23.643Z,5.77
2023-04-07T18:08:47.856Z,5.20
2023-04-07T18:14:10.119Z,5.67
2023-04-07T18:19:33.986Z,6.03
2023-04-07T18:24:56.699Z,6.23
2023-04-07T18:30:19.470Z,5.60
2023-04-07T18:35:42.722Z,5.83
2023-04-07T18:41:07.069Z,4.23
2023-04-07T18:46:29.665Z,4.83
2023-04-07T18:51:52.237Z,3.97
2023-04-07T18:57:16.807Z,3.77
2023-04-07T19:02:44.332Z,4.10
2023-04-07T19:08:07.592Z,4.37
2023-04-07T19:13:30.744Z,4.17
2023-04-07T19:18:53.905Z,4.30
2023-04-07T19:24:16.614Z,4.53
2023-04-07T19:29:38.984Z,5.07
2023-04-07T19:35:01.959Z,5.47
2023-04-07T19:40:24.805Z,5.37
2023-04-07T19:45:48.221Z,6.47
2023-04-07T19:51:10.998Z,6.20
2023-04-07T19:56:33.315Z,5.83
2023-04-07T20:01:56.106Z,6.10
2023-04-07T20:07:18.545Z,7.30
2023-04-07T20:12:40.962Z,7.73
2023-04-07T20:18:03.937Z,7.03
2023-04-07T20:23:26.000Z,7.97
2023-04-07T20:28:48.434Z,8.73
2023-04-07T20:34:10.733Z,8.90
2023-04-07T20:39:33.071Z,8.43
2023-04-07T20:45:02.352Z,9.53
2023-04-07T20:50:25.131Z,10.07
2023-04-07T20:55:47.596Z,10.03
2023-04-07T21:01:09.853Z,10.67
2023-04-07T21:06:32.077Z,11.37
2023-04-07T21:11:54.284Z,12.10
2023-04-07T21:17:16.509Z,11.77
2023-04-07T21:22:39.178Z,12.30
2023-04-07T21:28:01.397Z,13.67
2023-04-07T21:33:24.369Z,14.33
2023-04-07T21:38:46.822Z,14.33
2023-04-07T21:44:13.010Z,14.93
2023-04-07T21:49:36.083Z,15.37
2023-04-07T21:54:58.350Z,15.90
2023-04-07T22:00:20.497Z,16.10
2023-04-07T22:05:42.766Z,17.07
2023-04-07T22:11:05.561Z,16.63
2023-04-07T22:16:28.076Z,17.30
2023-04-07T22:21:50.494Z,17.13
2023-04-07T22:27:12.857Z,17.77
2023-04-07T22:32:35.999Z,18.13
2023-04-07T22:37:58.463Z,18.07
2023-04-07T22:43:20.955Z,18.00
2023-04-07T22:48:43.340Z,19.80
2023-04-07T22:54:05.661Z,19.57
2023-04-07T22:59:28.065Z,18.77
2023-04-07T23:04:51.115Z,18.40
2023-04-07T23:10:13.600Z,19.53
2023-04-07T23:15:36.380Z,17.43
2023-04-07T23:20:58.690Z,17.53
2023-04-07T23:26:21.072Z,16.03
2023-04-07T23:31:43.273Z,15.57
2023-04-07T23:37:05.670Z,15.00
2023-04-07T23:42:27.939Z,14.70
2023-04-07T23:47:50.401Z,14.63
2023-04-07T23:53:12.915Z,13.20
2023-04-07T23:58:35.367Z,13.83
